クグルクトゥク の空港の天気 - METARとTAF

Coppermine ( CYCO / YCO ) - カナダ ヌナブト準州Kugluktuk
飛行場実況気象(Metar)
観測時間08/17 05:00 MDT (08/17 11:00 UTC)
風向・風速南南西 4m/s
視程10km以上
天気現象
少しの雲 雲底高度 1340m
少しの雲 雲底高度 3660m
全天の4割程度の雲 雲底高度 7320m
気温2℃
湿度93%
気圧1013.7hPa
METARCYCO 171100Z 21008KT 15SM FEW044 FEW120 SCT240 02/01 A2993 RMK SC1AC1CI3 SC TR AC TR SLP137
過去の天気等 Google飛行場航空写真 Wunderground天気予報

過去48時間のMETAR

飛行場予報(TAF)
発表時間: 8/17 00:38 MDT (8/17 06:38 UTC)
予報対象時間: 17日1時 MDT ~ 17日13時 MDT
風向・風速西南西 4m/s
視程10km以上
全天の4割程度の雲 雲底高度 910m
全天の8割程度の雲 雲底高度 1520m
17日1時 MDT ~ 17日13時 MDT に一時的に
視程10km以上
天気現象弱いしゅう雨
全天を覆う雲 雲底高度 910m
TAF CYCO 170638Z 1707/1719 25008KT P6SM SCT030 BKN050
TEMPO 1707/1719 P6SM -SHRA OVC030 RMK NXT FCST BY 171300Z